Terminal Aerodrome Forecast
Issued by NWS

Home | Current Version | Previous Version | Text Only | Print | Product List | Glossary On
Versions: 1 2 3 4 5 6 7 8 9 10 11 12 13 14 15
000
FTUS45 KGJT 270602 AAA
TAFASE
TAF AMD
KASE 270602Z 2706/2806 VRB04KT P6SM VCTS SCT050 BKN090CB
      TEMPO 2706/2708 VRB10G20KT P6SM -TSRA BKN050CB OVC090
     FM270800 20004KT P6SM VCSH SCT070 BKN120
     FM271800 32005KT P6SM VCSH BKN120
     FM272200 35008G15KT P6SM VCSH SCT060 BKN120
     FM280300 21005KT P6SM VCSH BKN070 OVC120=

USA.gov is the U.S. government's official web portal to all federal, state and local government web resources and services.